createdAt,value
2019-06-27T00:00:08.291Z,101666.42
2019-06-27T00:02:42.935Z,101662.47
2019-06-27T00:05:20.960Z,101665.14
2019-06-27T00:07:55.387Z,101661.58
2019-06-27T00:10:27.469Z,101658.48
2019-06-27T00:13:00.086Z,101653.64
2019-06-27T00:15:29.777Z,101646.55
2019-06-27T00:18:12.883Z,101647.53
2019-06-27T00:20:42.923Z,101652.42
2019-06-27T00:23:44.496Z,101615.70
2019-06-27T00:26:15.464Z,101654.38
2019-06-27T00:28:50.093Z,101650.00
2019-06-27T00:31:22.388Z,101652.71
2019-06-27T00:33:57.852Z,101651.83
2019-06-27T00:36:33.434Z,101653.64
2019-06-27T00:39:07.782Z,101659.02
2019-06-27T00:41:44.885Z,101653.70
2019-06-27T00:44:15.108Z,101650.98
2019-06-27T00:47:06.462Z,101647.39
2019-06-27T00:49:37.339Z,101649.11
2019-06-27T00:55:09.859Z,101646.02
2019-06-27T00:57:44.897Z,101644.73
2019-06-27T01:00:16.206Z,101641.33
2019-06-27T01:02:48.233Z,101645.81
2019-06-27T01:05:18.686Z,101645.46
2019-06-27T01:07:51.480Z,101648.61
2019-06-27T01:10:23.172Z,101650.92
2019-06-27T01:12:53.755Z,101657.67
2019-06-27T01:15:28.122Z,101662.59
2019-06-27T01:17:59.608Z,101657.80
2019-06-27T01:20:30.678Z,101658.70
2019-06-27T01:23:03.270Z,101656.92
2019-06-27T01:25:33.362Z,101647.61
2019-06-27T01:28:07.400Z,101648.06
2019-06-27T01:30:46.015Z,101650.77
2019-06-27T01:33:16.976Z,101653.07
2019-06-27T01:35:47.663Z,101651.79
2019-06-27T01:38:18.705Z,101652.72
2019-06-27T01:41:02.705Z,101650.09
2019-06-27T01:43:40.019Z,101646.52
2019-06-27T01:46:17.109Z,101645.67
2019-06-27T01:48:48.543Z,101651.03
2019-06-27T01:51:19.820Z,101646.59
2019-06-27T01:53:55.069Z,101644.42
2019-06-27T01:56:26.577Z,101646.69
2019-06-27T01:58:59.592Z,101651.20
2019-06-27T02:01:30.412Z,101649.44
2019-06-27T02:04:02.834Z,101648.50
2019-06-27T02:06:40.207Z,101649.39
2019-06-27T02:09:17.088Z,101659.14
2019-06-27T02:11:52.602Z,101656.48
2019-06-27T02:14:23.625Z,101660.91
2019-06-27T02:16:55.576Z,101661.48
2019-06-27T02:19:28.797Z,101661.92
2019-06-27T02:22:00.779Z,101663.30
2019-06-27T02:24:33.769Z,101668.17
2019-06-27T02:27:06.585Z,101662.05
2019-06-27T02:29:40.418Z,101666.55
2019-06-27T02:32:12.892Z,101663.05
2019-06-27T02:34:44.904Z,101673.72
2019-06-27T02:37:21.690Z,101667.56
2019-06-27T02:39:54.267Z,101664.50
2019-06-27T02:42:25.661Z,101669.81
2019-06-27T02:44:56.969Z,101664.98
2019-06-27T02:47:27.060Z,101664.05
2019-06-27T02:49:59.859Z,101664.05
2019-06-27T02:52:30.520Z,101661.77
2019-06-27T02:55:11.155Z,101654.23
2019-06-27T02:57:42.386Z,101658.62
2019-06-27T03:00:12.523Z,101657.77
2019-06-27T03:02:45.830Z,101663.94
2019-06-27T03:05:20.481Z,101658.54
2019-06-27T03:07:54.426Z,101660.31
2019-06-27T03:10:33.578Z,101658.53
2019-06-27T03:13:04.981Z,101658.53
2019-06-27T03:15:37.619Z,101656.69
2019-06-27T03:18:09.583Z,101656.69
2019-06-27T03:20:51.562Z,101658.86
2019-06-27T03:23:23.863Z,101662.33
2019-06-27T03:25:59.882Z,101660.06
2019-06-27T03:28:51.058Z,101652.53
2019-06-27T03:31:07.222Z,101651.28
2019-06-27T03:33:38.198Z,101653.55
2019-06-27T03:36:07.760Z,101650.44
2019-06-27T03:38:41.218Z,101661.88
2019-06-27T03:41:12.925Z,101664.94
2019-06-27T03:43:45.903Z,101661.75
2019-06-27T03:46:24.679Z,101680.28
2019-06-27T03:49:03.382Z,101680.16
2019-06-27T03:51:34.204Z,101683.09
2019-06-27T03:54:07.533Z,101691.42
2019-06-27T03:56:40.866Z,101683.70
2019-06-27T03:59:13.573Z,101676.91
2019-06-27T04:04:39.155Z,101688.11
2019-06-27T04:07:15.507Z,101690.23
2019-06-27T04:09:59.635Z,101689.59
2019-06-27T04:12:36.080Z,101690.33
2019-06-27T04:15:07.387Z,101691.89
2019-06-27T04:17:39.326Z,101697.28
2019-06-27T04:20:10.403Z,101690.02
2019-06-27T04:22:43.743Z,101686.61
2019-06-27T04:25:20.103Z,101681.69
2019-06-27T04:27:51.642Z,101683.27
2019-06-27T04:30:23.762Z,101682.25
2019-06-27T04:32:53.237Z,101681.25
2019-06-27T04:35:29.443Z,101673.87
2019-06-27T04:38:01.940Z,101678.18
2019-06-27T04:40:35.144Z,101691.02
2019-06-27T04:43:08.602Z,101694.70
2019-06-27T04:45:41.810Z,101703.52
2019-06-27T04:48:14.089Z,101704.41
2019-06-27T04:50:44.929Z,101698.53
2019-06-27T04:53:15.883Z,101699.19
2019-06-27T04:55:52.520Z,101696.12
2019-06-27T04:58:29.483Z,101692.64
2019-06-27T05:01:00.545Z,101696.63
2019-06-27T05:03:31.525Z,101695.75
2019-06-27T05:06:02.861Z,101699.14
2019-06-27T05:08:39.752Z,101702.62
2019-06-27T05:11:16.103Z,101707.41
2019-06-27T05:13:48.902Z,101706.02
2019-06-27T05:16:22.650Z,101710.86
2019-06-27T05:18:55.535Z,101710.80
2019-06-27T05:21:28.939Z,101706.19
2019-06-27T05:24:04.607Z,101711.14
2019-06-27T05:26:35.660Z,101708.47
2019-06-27T05:29:08.340Z,101703.97
2019-06-27T05:31:40.129Z,101706.45
2019-06-27T05:34:14.683Z,101711.72
2019-06-27T05:36:44.792Z,101713.46
2019-06-27T05:39:16.707Z,101718.80
2019-06-27T05:41:50.541Z,101717.52
2019-06-27T05:44:21.102Z,101729.34
2019-06-27T05:46:51.959Z,101729.23
2019-06-27T05:49:22.717Z,101730.88
2019-06-27T05:51:53.235Z,101732.41
2019-06-27T05:54:24.150Z,101730.58
2019-06-27T05:56:55.845Z,101734.22
2019-06-27T05:59:29.508Z,101729.05
2019-06-27T06:02:04.472Z,101729.11
2019-06-27T06:04:36.790Z,101732.67
2019-06-27T06:07:06.997Z,101729.11
2019-06-27T06:09:42.139Z,101734.38
2019-06-27T06:12:16.790Z,101735.15
2019-06-27T06:14:46.945Z,101577.05
2019-06-27T06:17:23.084Z,101739.27
2019-06-27T06:19:55.022Z,101742.70
2019-06-27T06:22:24.726Z,101737.70
2019-06-27T06:24:58.246Z,101742.34
2019-06-27T06:27:29.987Z,101740.75
2019-06-27T06:30:04.707Z,101745.88
2019-06-27T06:32:36.931Z,101763.50
2019-06-27T06:35:13.182Z,101748.63
2019-06-27T06:37:43.770Z,101751.57
2019-06-27T06:40:20.764Z,101754.23
2019-06-27T06:42:59.311Z,101751.36
2019-06-27T06:45:28.311Z,101749.51
2019-06-27T06:48:03.425Z,101753.98
2019-06-27T06:50:33.508Z,101759.39
2019-06-27T06:53:07.388Z,101758.28
2019-06-27T06:55:38.497Z,101757.42
2019-06-27T06:58:11.852Z,101756.88
2019-06-27T07:00:41.508Z,101759.20
2019-06-27T07:03:12.684Z,101758.30
2019-06-27T07:05:47.831Z,101767.12
2019-06-27T07:08:24.481Z,101770.01
2019-06-27T07:10:54.890Z,101777.38
2019-06-27T07:13:28.827Z,101774.84
2019-06-27T07:16:04.707Z,101778.94
2019-06-27T07:18:34.877Z,101781.84
2019-06-27T07:21:06.927Z,101789.78
2019-06-27T07:23:39.103Z,101790.77
2019-06-27T07:26:13.209Z,101796.86
2019-06-27T07:28:45.981Z,101795.75
2019-06-27T07:31:18.639Z,101802.67
2019-06-27T07:33:52.213Z,101800.50
2019-06-27T07:36:22.198Z,101801.91
2019-06-27T07:38:54.705Z,101803.23
2019-06-27T07:41:24.639Z,101800.05
2019-06-27T07:43:55.840Z,101801.12
2019-06-27T07:46:26.519Z,101801.84
2019-06-27T07:48:57.755Z,101798.11
2019-06-27T07:51:27.559Z,101820.77
2019-06-27T07:53:57.436Z,101815.19
2019-06-27T07:56:30.431Z,101821.81
2019-06-27T07:59:03.179Z,101820.77
2019-06-27T08:01:36.067Z,101833.05
2019-06-27T08:04:06.187Z,101825.58
2019-06-27T08:06:36.848Z,101834.54
2019-06-27T08:09:11.053Z,101830.66
2019-06-27T08:11:40.817Z,101842.73
2019-06-27T08:14:22.648Z,101837.79
2019-06-27T08:16:53.891Z,101848.06
2019-06-27T08:19:27.521Z,101845.31
2019-06-27T08:22:02.555Z,101852.12
2019-06-27T08:24:51.886Z,101846.86
2019-06-27T08:27:28.162Z,101852.03
2019-06-27T08:30:02.317Z,101865.16
2019-06-27T08:32:35.901Z,101865.88
2019-06-27T08:35:11.772Z,101872.05
2019-06-27T08:37:55.666Z,101870.50
2019-06-27T08:40:29.599Z,101876.30
2019-06-27T08:43:01.032Z,101877.12
2019-06-27T08:48:37.106Z,101875.88
2019-06-27T08:51:11.880Z,101879.50
2019-06-27T08:53:44.006Z,101876.86
2019-06-27T08:56:14.688Z,101883.84
2019-06-27T08:58:46.345Z,101878.47
2019-06-27T09:01:30.769Z,101888.89
2019-06-27T09:04:07.139Z,101880.92
2019-06-27T09:06:38.542Z,101877.86
2019-06-27T09:09:14.723Z,101885.63
2019-06-27T09:11:46.194Z,101881.50
2019-06-27T09:14:17.179Z,101891.48
2019-06-27T09:16:48.801Z,101606.56
2019-06-27T09:19:29.589Z,101884.82
2019-06-27T09:22:12.050Z,101890.19
2019-06-27T09:24:52.297Z,101887.29
2019-06-27T09:27:25.352Z,101893.83
2019-06-27T09:29:58.476Z,101905.02
2019-06-27T09:32:32.909Z,101906.06
2019-06-27T09:35:03.816Z,101909.20
2019-06-27T09:37:37.189Z,101903.04
2019-06-27T09:40:14.187Z,101905.66
2019-06-27T09:42:46.666Z,101914.29
2019-06-27T09:45:17.462Z,101889.38
2019-06-27T09:47:47.648Z,101923.45
2019-06-27T09:50:21.511Z,101925.78
2019-06-27T09:52:53.229Z,101935.29
2019-06-27T09:55:24.195Z,101932.61
2019-06-27T09:57:53.891Z,101934.05
2019-06-27T10:00:25.107Z,101937.88
2019-06-27T10:02:57.066Z,101942.63
2019-06-27T10:05:27.127Z,101942.29
2019-06-27T10:07:56.890Z,101949.85
2019-06-27T10:10:26.419Z,101950.67
2019-06-27T10:12:56.301Z,101948.91
2019-06-27T10:15:26.054Z,101948.69
2019-06-27T10:17:55.735Z,101954.53
2019-06-27T10:20:25.549Z,101962.12
2019-06-27T10:22:55.029Z,101964.85
2019-06-27T10:25:24.652Z,101964.25
2019-06-27T10:27:54.482Z,101966.78
2019-06-27T10:30:24.574Z,101967.84
2019-06-27T10:32:59.698Z,101965.89
2019-06-27T10:35:25.923Z,101968.48
2019-06-27T10:37:55.568Z,101969.21
2019-06-27T10:40:25.395Z,101973.66
2019-06-27T10:42:55.339Z,101967.78
2019-06-27T10:45:25.012Z,101970.62
2019-06-27T10:47:54.944Z,101971.67
2019-06-27T10:50:24.539Z,101974.27
2019-06-27T10:52:54.043Z,101972.77
2019-06-27T10:55:23.778Z,101968.39
2019-06-27T10:57:53.390Z,101972.32
2019-06-27T11:00:24.689Z,101963.61
2019-06-27T11:02:54.612Z,101970.83
2019-06-27T11:05:24.673Z,101969.61
2019-06-27T11:07:54.426Z,101974.84
2019-06-27T11:10:24.298Z,101964.85
2019-06-27T11:12:53.982Z,101970.54
2019-06-27T11:15:23.706Z,101965.17
2019-06-27T11:17:53.647Z,101965.39
2019-06-27T11:20:23.625Z,101960.44
2019-06-27T11:22:53.344Z,101962.94
2019-06-27T11:25:23.169Z,101969.25
2019-06-27T11:27:52.840Z,101968.92
2019-06-27T11:30:22.645Z,101971.31
2019-06-27T11:32:52.596Z,101971.31
2019-06-27T11:35:22.264Z,101840.96
2019-06-27T11:37:52.218Z,101959.34
2019-06-27T11:40:22.508Z,101960.53
2019-06-27T11:42:52.593Z,101966.34
2019-06-27T11:45:22.308Z,101956.48
2019-06-27T11:47:52.120Z,101958.98
2019-06-27T11:50:21.706Z,101950.66
2019-06-27T11:52:51.630Z,101954.48
2019-06-27T11:55:21.539Z,101954.58
2019-06-27T11:57:51.114Z,101955.69
2019-06-27T12:00:21.282Z,101956.48
2019-06-27T12:02:51.174Z,101951.38
2019-06-27T12:05:20.884Z,101954.67
2019-06-27T12:07:50.571Z,101949.08
2019-06-27T12:10:20.629Z,101958.06
2019-06-27T12:12:50.312Z,101961.81
2019-06-27T12:15:20.483Z,101964.39
2019-06-27T12:17:50.143Z,101966.23
2019-06-27T12:20:20.036Z,101959.98
2019-06-27T12:22:50.031Z,101957.67
2019-06-27T12:25:19.736Z,101958.16
2019-06-27T12:27:49.379Z,101956.02
2019-06-27T12:30:19.825Z,101965.42
2019-06-27T12:32:52.630Z,101965.12
2019-06-27T12:35:20.897Z,101955.83
2019-06-27T12:37:50.538Z,101957.67
2019-06-27T12:40:20.804Z,101959.55
2019-06-27T12:42:50.528Z,101957.52
2019-06-27T12:45:20.355Z,101954.75
2019-06-27T12:47:50.037Z,101956.92
2019-06-27T12:50:20.067Z,101963.55
2019-06-27T12:52:49.837Z,101966.42
2019-06-27T12:55:19.652Z,101966.20
2019-06-27T12:57:49.705Z,101962.13
2019-06-27T13:00:19.449Z,101967.00
2019-06-27T13:02:49.065Z,101957.22
2019-06-27T13:05:20.606Z,101960.24
2019-06-27T13:07:50.460Z,101958.87
2019-06-27T13:10:21.632Z,101967.56
2019-06-27T13:12:51.227Z,101963.40
2019-06-27T13:15:22.487Z,101963.16
2019-06-27T13:17:52.156Z,101964.22
2019-06-27T13:20:22.060Z,101961.83
2019-06-27T13:22:51.820Z,101962.75
2019-06-27T13:25:21.589Z,101960.84
2019-06-27T13:27:51.399Z,101956.70
2019-06-27T13:30:23.943Z,101967.52
2019-06-27T13:32:53.766Z,101970.83
2019-06-27T13:35:24.789Z,101958.34
2019-06-27T13:37:54.545Z,101962.09
2019-06-27T13:40:24.465Z,101956.88
2019-06-27T13:42:55.638Z,101969.95
2019-06-27T13:45:26.773Z,101967.52
2019-06-27T13:47:56.804Z,101831.52
2019-06-27T13:50:26.386Z,101969.53
2019-06-27T13:52:56.084Z,101966.63
2019-06-27T13:55:26.194Z,101969.28
2019-06-27T13:57:57.601Z,101978.15
2019-06-27T14:00:43.066Z,101969.27
2019-06-27T14:03:12.773Z,101975.55
2019-06-27T14:05:42.671Z,101974.66
2019-06-27T14:08:12.613Z,101975.67
2019-06-27T14:10:42.379Z,101976.63
2019-06-27T14:13:11.874Z,101965.91
2019-06-27T14:15:41.730Z,101967.38
2019-06-27T14:18:11.332Z,101964.82
2019-06-27T14:20:40.909Z,101969.79
2019-06-27T14:23:10.594Z,101969.11
2019-06-27T14:25:40.491Z,101969.66
2019-06-27T14:28:10.124Z,101971.63
2019-06-27T14:30:39.906Z,101965.75
2019-06-27T14:33:10.233Z,101972.34
2019-06-27T14:35:40.020Z,101971.55
2019-06-27T14:38:11.052Z,101970.20
2019-06-27T14:40:40.864Z,101969.95
2019-06-27T14:43:10.698Z,101972.90
2019-06-27T14:45:40.511Z,101967.77
2019-06-27T14:48:10.089Z,101971.13
2019-06-27T14:50:40.078Z,101966.67
2019-06-27T14:53:09.783Z,101973.31
2019-06-27T14:55:39.420Z,101967.38
2019-06-27T14:58:08.998Z,101970.17
2019-06-27T15:00:38.907Z,101968.31
2019-06-27T15:03:08.579Z,101977.34
2019-06-27T15:05:38.074Z,101969.95
2019-06-27T15:08:07.596Z,101973.70
2019-06-27T15:10:37.359Z,101982.00
2019-06-27T15:13:06.982Z,101985.39
2019-06-27T15:15:36.580Z,101981.48
2019-06-27T15:18:06.630Z,101980.52
2019-06-27T15:20:36.621Z,101971.34
2019-06-27T15:23:06.234Z,101975.52
2019-06-27T15:25:35.943Z,101983.34
2019-06-27T15:28:05.880Z,101981.55
2019-06-27T15:30:35.713Z,101982.05
2019-06-27T15:33:05.596Z,101980.71
2019-06-27T15:35:50.844Z,101986.95
2019-06-27T15:38:07.015Z,101989.78
2019-06-27T15:40:36.580Z,101985.48
2019-06-27T15:43:06.245Z,101986.92
2019-06-27T15:45:36.206Z,101990.18
2019-06-27T15:48:05.915Z,101992.38
2019-06-27T15:50:35.828Z,101991.87
2019-06-27T15:53:06.174Z,101992.83
2019-06-27T15:55:35.946Z,101988.86
2019-06-27T15:58:06.118Z,101985.25
2019-06-27T16:00:39.216Z,101853.89
2019-06-27T16:03:07.285Z,101989.34
2019-06-27T16:05:37.202Z,101989.80
2019-06-27T16:08:06.975Z,101988.98
2019-06-27T16:10:36.632Z,101994.66
2019-06-27T16:13:06.685Z,101994.25
2019-06-27T16:15:36.327Z,101994.12
2019-06-27T16:18:05.911Z,101995.39
2019-06-27T16:20:36.185Z,101984.40
2019-06-27T16:23:05.910Z,101996.13
2019-06-27T16:25:35.739Z,101987.77
2019-06-27T16:28:05.854Z,101985.63
2019-06-27T16:30:35.600Z,101993.89
2019-06-27T16:33:05.757Z,101998.56
2019-06-27T16:35:35.678Z,101989.45
2019-06-27T16:38:05.544Z,101991.72
2019-06-27T16:40:35.618Z,102000.79
2019-06-27T16:43:05.974Z,101998.82
2019-06-27T16:45:35.890Z,102004.17
2019-06-27T16:48:05.715Z,102003.00
2019-06-27T16:50:35.922Z,102009.39
2019-06-27T16:53:05.714Z,102010.80
2019-06-27T16:55:35.934Z,102012.66
2019-06-27T16:58:05.731Z,102014.89
2019-06-27T17:00:35.675Z,102013.20
2019-06-27T17:03:05.834Z,102010.44
2019-06-27T17:05:35.785Z,102009.25
2019-06-27T17:08:06.273Z,102003.27
2019-06-27T17:10:36.048Z,102004.80
2019-06-27T17:13:05.704Z,101999.52
2019-06-27T17:15:35.554Z,102000.52
2019-06-27T17:18:06.122Z,101804.19
2019-06-27T17:20:35.676Z,102006.21
2019-06-27T17:23:05.756Z,102011.34
2019-06-27T17:25:35.972Z,102011.94
2019-06-27T17:28:05.847Z,102014.63
2019-06-27T17:30:35.434Z,102013.72
2019-06-27T17:33:05.605Z,102022.56
2019-06-27T17:35:38.428Z,102027.65
2019-06-27T17:38:08.384Z,102027.55
2019-06-27T17:40:38.140Z,102020.33
2019-06-27T17:43:07.788Z,102030.08
2019-06-27T17:45:37.621Z,102023.65
2019-06-27T17:48:07.710Z,102023.83
2019-06-27T17:50:37.416Z,102026.27
2019-06-27T17:53:07.158Z,102036.34
2019-06-27T17:55:36.850Z,102037.20
2019-06-27T17:58:06.413Z,102034.70
2019-06-27T18:00:36.139Z,102036.66
2019-06-27T18:03:06.111Z,102035.28
2019-06-27T18:05:35.798Z,102043.34
2019-06-27T18:08:09.019Z,102043.83
2019-06-27T18:10:38.774Z,102052.37
2019-06-27T18:13:08.429Z,102051.11
2019-06-27T18:15:38.040Z,102047.91
2019-06-27T18:18:07.652Z,102050.52
2019-06-27T18:20:37.344Z,102047.88
2019-06-27T18:23:07.035Z,102048.75
2019-06-27T18:25:36.747Z,102045.53
2019-06-27T18:28:06.276Z,102050.36
2019-06-27T18:30:36.133Z,102048.97
2019-06-27T18:33:06.264Z,102018.45
2019-06-27T18:35:35.923Z,102057.61
2019-06-27T18:38:05.791Z,102064.91
2019-06-27T18:40:38.691Z,102054.10
2019-06-27T18:43:08.353Z,102056.55
2019-06-27T18:45:38.020Z,102056.23
2019-06-27T18:48:07.536Z,102050.77
2019-06-27T18:50:37.255Z,102055.72
2019-06-27T18:53:06.887Z,102060.05
2019-06-27T18:55:36.480Z,102067.69
2019-06-27T18:58:06.670Z,102073.34
2019-06-27T19:00:36.505Z,102054.00
2019-06-27T19:03:06.462Z,102089.08
2019-06-27T19:05:36.043Z,102093.02
2019-06-27T19:08:05.738Z,102091.88
2019-06-27T19:10:35.536Z,102097.55
2019-06-27T19:13:05.733Z,102105.33
2019-06-27T19:15:35.711Z,102107.06
2019-06-27T19:18:07.643Z,102111.70
2019-06-27T19:20:47.350Z,102107.92
2019-06-27T19:23:54.572Z,102116.25
2019-06-27T19:26:24.238Z,102114.37
2019-06-27T19:28:53.878Z,102113.70
2019-06-27T19:31:23.920Z,102112.36
2019-06-27T19:33:53.608Z,102109.59
2019-06-27T19:36:23.222Z,102105.81
2019-06-27T19:38:54.456Z,102101.73
2019-06-27T19:41:24.123Z,102105.81
2019-06-27T19:43:53.779Z,102116.12
2019-06-27T19:46:24.005Z,102108.80
2019-06-27T19:48:53.589Z,102118.80
2019-06-27T19:51:23.259Z,102112.47
2019-06-27T19:53:53.042Z,102104.46
2019-06-27T19:56:22.707Z,102109.69
2019-06-27T19:58:52.225Z,102106.09
2019-06-27T20:01:22.347Z,102112.77
2019-06-27T20:03:51.946Z,102126.72
2019-06-27T20:06:21.648Z,102127.48
2019-06-27T20:08:51.592Z,102123.61
2019-06-27T20:11:21.269Z,102061.03
2019-06-27T20:13:50.819Z,102132.41
2019-06-27T20:16:20.529Z,102141.52
2019-06-27T20:18:50.246Z,102144.03
2019-06-27T20:21:20.578Z,102136.56
2019-06-27T20:23:50.362Z,102127.89
2019-06-27T20:26:19.888Z,102142.08
2019-06-27T20:28:52.758Z,102149.02
2019-06-27T20:31:22.494Z,102149.50
2019-06-27T20:33:52.055Z,102151.59
2019-06-27T20:36:22.302Z,102148.09
2019-06-27T20:38:52.059Z,102153.70
2019-06-27T20:41:21.740Z,102155.58
2019-06-27T20:43:53.071Z,102151.56
2019-06-27T20:46:22.550Z,102153.65
2019-06-27T20:48:53.964Z,102167.05
2019-06-27T20:51:23.597Z,102161.70
2019-06-27T20:53:53.595Z,102156.72
2019-06-27T20:56:23.180Z,102154.18
2019-06-27T20:58:53.038Z,102150.53
2019-06-27T21:01:23.059Z,102146.90
2019-06-27T21:03:56.404Z,102149.98
2019-06-27T21:06:26.580Z,102157.12
2019-06-27T21:08:56.578Z,102156.40
2019-06-27T21:11:26.925Z,102160.40
2019-06-27T21:13:56.647Z,102165.25
2019-06-27T21:16:27.862Z,102177.95
2019-06-27T21:18:57.808Z,102179.77
2019-06-27T21:21:27.455Z,102189.09
2019-06-27T21:23:57.430Z,102189.64
2019-06-27T21:26:27.318Z,102189.61
2019-06-27T21:28:56.878Z,102184.31
2019-06-27T21:31:26.435Z,102187.80
2019-06-27T21:33:56.243Z,102184.55
2019-06-27T21:36:25.804Z,102197.53
2019-06-27T21:39:07.113Z,102203.55
2019-06-27T21:41:28.423Z,102204.95
2019-06-27T21:43:58.055Z,102201.74
2019-06-27T21:46:27.839Z,102210.22
2019-06-27T21:48:58.011Z,102205.87
2019-06-27T21:51:27.660Z,102201.81
2019-06-27T21:53:57.427Z,102197.81
2019-06-27T21:56:27.223Z,102207.55
2019-06-27T21:58:56.756Z,102215.58
2019-06-27T22:01:29.420Z,102219.09
2019-06-27T22:03:59.498Z,102223.94
2019-06-27T22:06:29.234Z,102228.20
2019-06-27T22:08:59.139Z,102220.68
2019-06-27T22:11:28.941Z,102231.69
2019-06-27T22:13:58.524Z,102230.77
2019-06-27T22:16:29.355Z,102234.33
2019-06-27T22:18:59.111Z,102227.84
2019-06-27T22:21:28.646Z,102227.57
2019-06-27T22:23:58.322Z,102231.13
2019-06-27T22:26:27.995Z,102228.09
2019-06-27T22:28:57.561Z,102053.05
2019-06-27T22:31:27.257Z,102232.89
2019-06-27T22:33:57.064Z,102220.77
2019-06-27T22:36:26.682Z,102228.20
2019-06-27T22:39:14.453Z,102237.94
2019-06-27T22:42:02.529Z,102224.61
2019-06-27T22:44:49.543Z,102226.04
2019-06-27T22:47:36.478Z,102221.62
2019-06-27T22:50:22.187Z,102213.63
2019-06-27T22:53:07.392Z,102223.91
2019-06-27T22:55:37.068Z,102221.72
2019-06-27T22:58:06.725Z,102222.27
2019-06-27T23:00:36.319Z,102230.32
2019-06-27T23:03:06.163Z,102234.75
2019-06-27T23:05:36.078Z,102238.31
2019-06-27T23:08:05.855Z,102235.64
2019-06-27T23:10:35.674Z,102240.00
2019-06-27T23:13:08.483Z,102237.36
2019-06-27T23:15:38.185Z,102239.64
2019-06-27T23:18:07.741Z,102235.72
2019-06-27T23:20:47.413Z,102233.08
2019-06-27T23:23:34.346Z,102233.13
2019-06-27T23:26:08.678Z,102238.06
2019-06-27T23:28:44.878Z,102232.34
2019-06-27T23:34:10.238Z,102243.76
2019-06-27T23:36:43.834Z,102240.66
2019-06-27T23:39:16.019Z,102237.55
2019-06-27T23:41:54.785Z,102243.79
2019-06-27T23:44:52.125Z,102239.77
2019-06-27T23:47:32.297Z,102241.06
2019-06-27T23:50:05.139Z,102247.36
2019-06-27T23:52:38.053Z,102206.82
2019-06-27T23:55:29.476Z,102236.42
2019-06-27T23:58:22.544Z,102238.61
